sensor_id;sensor_type;location;lat;lon;timestamp;temperature;humidity
72646;DHT22;60687;53.876;10.674;2023-05-07T00:08:34;9.30;99.90
72646;DHT22;60687;53.876;10.674;2023-05-07T00:18:38;9.30;99.90
72646;DHT22;60687;53.876;10.674;2023-05-07T00:28:40;9.30;99.90
72646;DHT22;60687;53.876;10.674;2023-05-07T00:38:44;9.30;99.90
72646;DHT22;60687;53.876;10.674;2023-05-07T00:48:47;9.30;99.90
72646;DHT22;60687;53.876;10.674;2023-05-07T00:58:51;9.30;99.90
72646;DHT22;60687;53.876;10.674;2023-05-07T01:08:54;9.20;99.90
72646;DHT22;60687;53.876;10.674;2023-05-07T01:18:59;9.20;99.90
72646;DHT22;60687;53.876;10.674;2023-05-07T01:29:03;9.20;99.90
72646;DHT22;60687;53.876;10.674;2023-05-07T01:39:06;9.20;99.90
72646;DHT22;60687;53.876;10.674;2023-05-07T01:49:10;9.10;99.90
72646;DHT22;60687;53.876;10.674;2023-05-07T01:59:13;9.20;99.90
72646;DHT22;60687;53.876;10.674;2023-05-07T02:09:16;9.20;99.90
72646;DHT22;60687;53.876;10.674;2023-05-07T02:19:20;9.10;99.90
72646;DHT22;60687;53.876;10.674;2023-05-07T02:29:24;9.10;99.90
72646;DHT22;60687;53.876;10.674;2023-05-07T02:39:28;9.10;99.90
72646;DHT22;60687;53.876;10.674;2023-05-07T02:49:34;9.10;99.90
72646;DHT22;60687;53.876;10.674;2023-05-07T02:59:38;9.10;99.90
72646;DHT22;60687;53.876;10.674;2023-05-07T03:09:42;9.10;99.90
72646;DHT22;60687;53.876;10.674;2023-05-07T03:19:44;9.10;99.90
72646;DHT22;60687;53.876;10.674;2023-05-07T03:29:48;9.10;99.90
72646;DHT22;60687;53.876;10.674;2023-05-07T03:39:50;9.10;99.90
72646;DHT22;60687;53.876;10.674;2023-05-07T03:49:55;9.10;99.90
72646;DHT22;60687;53.876;10.674;2023-05-07T03:59:59;9.10;99.90
72646;DHT22;60687;53.876;10.674;2023-05-07T04:10:03;9.10;99.90
72646;DHT22;60687;53.876;10.674;2023-05-07T04:20:09;9.10;99.90
72646;DHT22;60687;53.876;10.674;2023-05-07T04:30:14;9.10;99.90
72646;DHT22;60687;53.876;10.674;2023-05-07T04:40:17;9.10;99.90
72646;DHT22;60687;53.876;10.674;2023-05-07T04:50:21;9.10;99.90
72646;DHT22;60687;53.876;10.674;2023-05-07T05:00:27;9.10;99.90
72646;DHT22;60687;53.876;10.674;2023-05-07T05:10:32;9.10;99.90
72646;DHT22;60687;53.876;10.674;2023-05-07T05:20:34;9.20;99.90
72646;DHT22;60687;53.876;10.674;2023-05-07T05:30:39;9.20;99.90
72646;DHT22;60687;53.876;10.674;2023-05-07T05:40:42;9.30;99.90
72646;DHT22;60687;53.876;10.674;2023-05-07T05:50:46;9.30;99.90
72646;DHT22;60687;53.876;10.674;2023-05-07T06:00:50;9.30;99.90
72646;DHT22;60687;53.876;10.674;2023-05-07T06:10:58;9.40;99.90
72646;DHT22;60687;53.876;10.674;2023-05-07T06:21:02;9.50;99.90
72646;DHT22;60687;53.876;10.674;2023-05-07T06:31:16;9.70;99.90
72646;DHT22;60687;53.876;10.674;2023-05-07T06:41:25;9.70;99.90
72646;DHT22;60687;53.876;10.674;2023-05-07T06:51:31;9.70;99.90
72646;DHT22;60687;53.876;10.674;2023-05-07T07:01:37;9.80;99.90
72646;DHT22;60687;53.876;10.674;2023-05-07T07:11:42;9.90;99.90
72646;DHT22;60687;53.876;10.674;2023-05-07T07:21:45;10.10;99.90
72646;DHT22;60687;53.876;10.674;2023-05-07T07:31:50;10.20;97.40
72646;DHT22;60687;53.876;10.674;2023-05-07T07:41:57;10.10;97.70
72646;DHT22;60687;53.876;10.674;2023-05-07T07:52:03;10.30;99.10
72646;DHT22;60687;53.876;10.674;2023-05-07T08:02:07;10.40;99.90
72646;DHT22;60687;53.876;10.674;2023-05-07T08:12:28;10.50;99.80
72646;DHT22;60687;53.876;10.674;2023-05-07T08:22:31;10.70;98.10
72646;DHT22;60687;53.876;10.674;2023-05-07T08:32:37;10.70;98.30
72646;DHT22;60687;53.876;10.674;2023-05-07T08:42:40;10.80;96.80
72646;DHT22;60687;53.876;10.674;2023-05-07T08:52:45;11.10;95.00
72646;DHT22;60687;53.876;10.674;2023-05-07T09:02:48;11.20;96.60
72646;DHT22;60687;53.876;10.674;2023-05-07T09:12:52;11.40;94.90
72646;DHT22;60687;53.876;10.674;2023-05-07T09:22:55;11.80;94.10
72646;DHT22;60687;53.876;10.674;2023-05-07T09:33:02;12.20;94.70
72646;DHT22;60687;53.876;10.674;2023-05-07T09:43:10;12.40;92.30
72646;DHT22;60687;53.876;10.674;2023-05-07T09:53:18;12.70;92.10
72646;DHT22;60687;53.876;10.674;2023-05-07T10:03:22;13.00;91.00
72646;DHT22;60687;53.876;10.674;2023-05-07T10:13:38;13.30;89.40
72646;DHT22;60687;53.876;10.674;2023-05-07T10:23:45;13.40;83.30
72646;DHT22;60687;53.876;10.674;2023-05-07T10:33:49;13.70;81.80
72646;DHT22;60687;53.876;10.674;2023-05-07T10:43:55;14.00;84.70
72646;DHT22;60687;53.876;10.674;2023-05-07T10:54:24;14.20;75.40
72646;DHT22;60687;53.876;10.674;2023-05-07T11:04:40;14.50;74.60
72646;DHT22;60687;53.876;10.674;2023-05-07T11:15:10;14.60;70.80
72646;DHT22;60687;53.876;10.674;2023-05-07T11:25:18;14.80;73.60
72646;DHT22;60687;53.876;10.674;2023-05-07T11:35:27;15.30;69.90
72646;DHT22;60687;53.876;10.674;2023-05-07T11:45:30;15.80;68.40
72646;DHT22;60687;53.876;10.674;2023-05-07T11:55:34;16.00;66.40
72646;DHT22;60687;53.876;10.674;2023-05-07T12:05:36;16.10;62.20
72646;DHT22;60687;53.876;10.674;2023-05-07T12:15:44;15.90;65.00
72646;DHT22;60687;53.876;10.674;2023-05-07T12:25:46;16.00;64.10
72646;DHT22;60687;53.876;10.674;2023-05-07T12:35:50;15.90;63.60
72646;DHT22;60687;53.876;10.674;2023-05-07T12:45:54;15.80;59.50
72646;DHT22;60687;53.876;10.674;2023-05-07T12:56:00;15.60;61.90
72646;DHT22;60687;53.876;10.674;2023-05-07T13:06:04;15.80;61.40
72646;DHT22;60687;53.876;10.674;2023-05-07T13:16:10;15.90;61.40
72646;DHT22;60687;53.876;10.674;2023-05-07T13:26:13;15.90;63.80
72646;DHT22;60687;53.876;10.674;2023-05-07T13:36:17;15.80;62.70
72646;DHT22;60687;53.876;10.674;2023-05-07T13:46:19;15.80;63.00
72646;DHT22;60687;53.876;10.674;2023-05-07T13:56:23;15.60;62.40
72646;DHT22;60687;53.876;10.674;2023-05-07T14:06:25;15.70;63.30
72646;DHT22;60687;53.876;10.674;2023-05-07T14:16:29;16.00;63.70
72646;DHT22;60687;53.876;10.674;2023-05-07T14:26:31;16.20;61.60
72646;DHT22;60687;53.876;10.674;2023-05-07T14:36:36;16.10;59.10
72646;DHT22;60687;53.876;10.674;2023-05-07T14:46:39;16.20;56.20
72646;DHT22;60687;53.876;10.674;2023-05-07T14:56:43;16.00;56.80
72646;DHT22;60687;53.876;10.674;2023-05-07T15:06:45;15.90;59.70
72646;DHT22;60687;53.876;10.674;2023-05-07T15:16:49;16.00;59.60
72646;DHT22;60687;53.876;10.674;2023-05-07T15:26:52;16.10;56.90
72646;DHT22;60687;53.876;10.674;2023-05-07T15:36:56;16.40;57.10
72646;DHT22;60687;53.876;10.674;2023-05-07T15:46:58;16.40;56.80
72646;DHT22;60687;53.876;10.674;2023-05-07T15:57:02;16.30;56.50
72646;DHT22;60687;53.876;10.674;2023-05-07T16:07:07;16.20;55.00
72646;DHT22;60687;53.876;10.674;2023-05-07T16:17:11;16.10;56.90
72646;DHT22;60687;53.876;10.674;2023-05-07T16:27:13;16.10;57.60
72646;DHT22;60687;53.876;10.674;2023-05-07T16:37:17;16.10;57.60
72646;DHT22;60687;53.876;10.674;2023-05-07T16:47:19;16.00;57.10
72646;DHT22;60687;53.876;10.674;2023-05-07T16:57:24;16.00;56.30
72646;DHT22;60687;53.876;10.674;2023-05-07T17:07:27;15.90;54.40
72646;DHT22;60687;53.876;10.674;2023-05-07T17:17:30;15.80;55.90
72646;DHT22;60687;53.876;10.674;2023-05-07T17:27:33;15.70;56.60
72646;DHT22;60687;53.876;10.674;2023-05-07T17:37:37;15.70;57.40
72646;DHT22;60687;53.876;10.674;2023-05-07T17:47:39;15.70;56.10
72646;DHT22;60687;53.876;10.674;2023-05-07T17:57:42;15.60;57.30
72646;DHT22;60687;53.876;10.674;2023-05-07T18:07:45;15.60;58.90
72646;DHT22;60687;53.876;10.674;2023-05-07T18:17:48;15.50;58.20
72646;DHT22;60687;53.876;10.674;2023-05-07T18:27:50;15.40;58.90
72646;DHT22;60687;53.876;10.674;2023-05-07T18:37:54;15.30;60.10
72646;DHT22;60687;53.876;10.674;2023-05-07T18:47:56;15.20;59.90
72646;DHT22;60687;53.876;10.674;2023-05-07T18:58:00;15.10;61.90
72646;DHT22;60687;53.876;10.674;2023-05-07T19:08:02;15.00;63.20
72646;DHT22;60687;53.876;10.674;2023-05-07T19:18:06;14.80;64.50
72646;DHT22;60687;53.876;10.674;2023-05-07T19:28:09;14.70;65.70
72646;DHT22;60687;53.876;10.674;2023-05-07T19:38:13;14.50;66.30
72646;DHT22;60687;53.876;10.674;2023-05-07T19:48:16;14.30;66.90
72646;DHT22;60687;53.876;10.674;2023-05-07T19:58:19;14.10;68.60
72646;DHT22;60687;53.876;10.674;2023-05-07T20:08:22;14.00;69.50
72646;DHT22;60687;53.876;10.674;2023-05-07T20:18:27;13.80;71.30
72646;DHT22;60687;53.876;10.674;2023-05-07T20:28:30;13.70;71.90
72646;DHT22;60687;53.876;10.674;2023-05-07T20:38:34;13.50;73.50
72646;DHT22;60687;53.876;10.674;2023-05-07T20:48:36;13.40;74.20
72646;DHT22;60687;53.876;10.674;2023-05-07T20:58:40;13.20;74.00
72646;DHT22;60687;53.876;10.674;2023-05-07T21:08:42;13.00;73.70
72646;DHT22;60687;53.876;10.674;2023-05-07T21:18:46;12.90;74.60
72646;DHT22;60687;53.876;10.674;2023-05-07T21:28:49;12.70;75.50
72646;DHT22;60687;53.876;10.674;2023-05-07T21:38:52;12.60;76.10
72646;DHT22;60687;53.876;10.674;2023-05-07T21:48:55;12.40;76.30
72646;DHT22;60687;53.876;10.674;2023-05-07T22:09:02;12.00;75.80
72646;DHT22;60687;53.876;10.674;2023-05-07T22:19:06;11.70;76.40
72646;DHT22;60687;53.876;10.674;2023-05-07T22:29:08;11.60;77.00
72646;DHT22;60687;53.876;10.674;2023-05-07T22:39:12;11.50;78.20
72646;DHT22;60687;53.876;10.674;2023-05-07T22:49:14;11.40;79.00
72646;DHT22;60687;53.876;10.674;2023-05-07T22:59:17;11.30;80.20
72646;DHT22;60687;53.876;10.674;2023-05-07T23:09:20;11.10;81.00
72646;DHT22;60687;53.876;10.674;2023-05-07T23:19:23;11.00;82.30
72646;DHT22;60687;53.876;10.674;2023-05-07T23:29:26;10.90;84.30
72646;DHT22;60687;53.876;10.674;2023-05-07T23:39:30;10.80;85.70
72646;DHT22;60687;53.876;10.674;2023-05-07T23:49:33;10.70;86.70
72646;DHT22;60687;53.876;10.674;2023-05-07T23:59:37;10.60;86.50
